Lancaster, CA

1:37 PM PDT on October 24, 2014 (GMT -0700)
APRSWXNET Neenach CA US | Change Station
CLOSE
Current Station
Personal Weather Station
Location: Quartz Hill, CA
Elevation: 2959 ft
Nearby Weather Stations

Elev 2959 ft 34.80 °N, 118.59 °W | Updated 37 minutes ago

Clear
Clear
83.0 °F
Feels Like 83.0 °F
N
2.0
Wind Variable Wind from East
Gusts 10.0 mph

Today
High -- | Low -- °F
--% Chance of Precip.
Yesterday
High -- | Low -- °F
Precip. -- in
7:07 AM 6:08 PM
New Moon, 1% visible
Pressure 30.01 in
Visibility 10.0 miles
Clouds Clear
Dew Point 27.0 °F
Humidity 13%
Rainfall 0.00 in
Snow Depth Not available.
UV 6 out of 12
Pollen 4.10 out of 12
Ozone Good
Flu Activity Sporadic
METAR KWJF 241956Z 00000KT 10SM CLR 27/M03 A3005 RMK AO2 SLP161 T02721028

More Conditions Fewer Conditions

Pressure 30.01 in
Visibility 10.0 miles
Clouds Clear
Dew Point 27.0 °F
Humidity 13%
Rainfall 0.00 in
Snow Depth Not available.
UV 6 out of 12
Pollen 4.10 out of 12
Ozone Good
Flu Activity Sporadic
METAR KWJF 241956Z 00000KT 10SM CLR 27/M03 A3005 RMK AO2 SLP161 T02721028

More Conditions Fewer Conditions

10-Day Weather Forecast

Almanac

Astronomy

Oct. 24, 2014 Rise Set
Actual Time 7:07 AM PDT 6:08 PM PDT
Civil Twilight 6:42 AM PDT 6:34 PM PDT
Nautical Twilight 6:12 AM PDT 7:03 PM PDT
Astronomical Twilight 5:43 AM PDT 7:33 PM PDT
Moon 7:50 AM PDT 6:54 PM PDT
Length of Visible Light 11h 52m
Length of Day
11h 00m
Tomorrow will be 2m 0s shorter.
New Moon, 1% of the Moon is Illuminated
Today
New Moon
Oct 30
First Quarter
Nov 6
Full
Nov 14
Last Quarter
Nov 22
New

Today's Extremes

State Highs State Lows

Community

WunderPhotos

Upload Photos

1,764,648 photos uploaded!

Nearby

Air Quality

  Air Quality AQ Index Pollutant
Yesterday Moderate
OZONE
Yesterday Good
PM10
Current Good
OZONE
Friday Good
PM10
Friday Good
OZONE
Friday Good
CO
Friday Good
NO2

Snow Depth

Station Depth Elevation
Virginia Lakes Ridge 0 in 9200 ft
Leavitt Meadows 0 in 7200 ft
Summit Meadow 0 in 9122 ft
Echo Peak 0 in 7800 ft
Rubicon #2 0 in 7500 ft

Earthquake Activity

City Distance Mag. Time & Date
Brea, California 71 miles 2.9 3:35 PM PDT
2014-10-23
Brea, California 71 miles 2.8 3:34 PM PDT
2014-10-23
Corona, California 82 miles 2.5 1:09 PM PDT
2014-10-23
Solvang, California 93 miles 2.6 5:35 PM PDT
2014-10-22
Minimum magnitude displayed is 2.5.

Coastal Water Temperatures

Place Temperature
No Stations Reporting

Nearby Weather Stations